Weather at Sultan Ismail Petra Airport

Public forecast

Using degrees Celsius for public forecast. Weather courtesy of forecast.io.

Current aviation weather report (METAR) for Sultan Ismail Petra Airport

2024/04/13 09:00 (retrieved 39 minutes ago)

WMKC 130900Z 07011KT 040V110 9999 FEW018 31/25 Q1007

Aviation forecast (TAF) for Sultan Ismail Petra Airport

2024/04/13 06:00 (retrieved 4 hours ago)

TAF WMKC 130500Z 1306/1406 09010KT 9999 FEW018